createdAt,value
2023-01-19T00:01:54.678Z,92.81
2023-01-19T00:04:24.627Z,92.95
2023-01-19T00:06:55.049Z,93.06
2023-01-19T00:09:25.088Z,93.17
2023-01-19T00:11:54.772Z,92.77
2023-01-19T00:14:24.675Z,93.26
2023-01-19T00:16:54.628Z,93.30
2023-01-19T00:19:24.917Z,93.39
2023-01-19T00:21:55.272Z,93.61
2023-01-19T00:24:25.339Z,93.56
2023-01-19T00:26:55.513Z,93.62
2023-01-19T00:29:25.882Z,93.64
2023-01-19T00:31:56.087Z,93.78
2023-01-19T00:34:26.273Z,93.69
2023-01-19T00:36:55.942Z,93.38
2023-01-19T00:39:26.049Z,93.84
2023-01-19T00:42:14.467Z,93.80
2023-01-19T00:44:44.782Z,93.79
2023-01-19T00:47:14.279Z,93.63
2023-01-19T00:49:44.697Z,93.94
2023-01-19T00:52:14.881Z,94.05
2023-01-19T00:54:44.816Z,93.77
2023-01-19T00:57:14.644Z,93.93
2023-01-19T00:59:44.720Z,94.11
2023-01-19T01:02:15.020Z,94.27
2023-01-19T01:04:45.337Z,94.44
2023-01-19T01:07:15.053Z,94.00
2023-01-19T01:09:45.065Z,94.36
2023-01-19T01:12:15.194Z,94.31
2023-01-19T01:14:45.481Z,94.18
2023-01-19T01:17:15.571Z,94.24
2023-01-19T01:19:45.815Z,94.35
2023-01-19T01:22:15.856Z,94.59
2023-01-19T01:24:46.153Z,94.74
2023-01-19T01:27:16.452Z,94.81
2023-01-19T01:29:49.614Z,94.79
2023-01-19T01:32:19.875Z,94.90
2023-01-19T01:34:50.055Z,94.86
2023-01-19T01:37:19.724Z,94.44
2023-01-19T01:39:49.622Z,94.79
2023-01-19T01:42:26.839Z,94.85
2023-01-19T01:45:02.238Z,94.87
2023-01-19T01:47:45.665Z,94.78
2023-01-19T01:50:30.354Z,94.97
2023-01-19T01:53:15.805Z,94.80
2023-01-19T01:55:51.330Z,94.84
2023-01-19T01:58:21.530Z,94.66
2023-01-19T02:01:09.696Z,94.21
2023-01-19T02:03:40.133Z,94.57
2023-01-19T02:06:11.774Z,94.34
2023-01-19T02:09:04.230Z,94.40
2023-01-19T02:11:53.579Z,94.52
2023-01-19T02:14:23.846Z,94.44
2023-01-19T02:16:54.228Z,94.41
2023-01-19T02:19:31.881Z,94.53
2023-01-19T02:22:12.983Z,94.49
2023-01-19T02:24:44.036Z,94.52
2023-01-19T02:27:14.970Z,94.67
2023-01-19T02:29:45.418Z,94.96
2023-01-19T02:32:15.806Z,95.03
2023-01-19T02:34:45.991Z,95.02
2023-01-19T02:37:19.876Z,95.13
2023-01-19T02:39:57.829Z,95.23
2023-01-19T02:42:51.609Z,95.46
2023-01-19T02:45:24.166Z,95.46
2023-01-19T02:47:55.037Z,95.65
2023-01-19T02:50:44.873Z,95.49
2023-01-19T02:53:27.053Z,95.42
2023-01-19T02:56:33.467Z,95.57
2023-01-19T02:59:31.504Z,95.73
2023-01-19T03:02:12.359Z,95.93
2023-01-19T03:05:15.166Z,95.67
2023-01-19T03:08:09.596Z,95.50
2023-01-19T03:10:45.595Z,95.66
2023-01-19T03:13:18.102Z,95.70
2023-01-19T03:15:56.728Z,95.70
2023-01-19T03:18:30.735Z,95.81
2023-01-19T03:21:05.680Z,95.76
2023-01-19T03:23:38.756Z,96.05
2023-01-19T03:26:12.437Z,95.88
2023-01-19T03:28:44.355Z,95.69
2023-01-19T03:31:26.437Z,95.72
2023-01-19T03:34:01.001Z,95.76
2023-01-19T03:36:42.801Z,95.85
2023-01-19T03:39:16.491Z,95.78
2023-01-19T03:41:51.578Z,95.63
2023-01-19T03:44:21.762Z,95.73
2023-01-19T03:46:52.026Z,95.94
2023-01-19T03:49:22.418Z,95.68
2023-01-19T03:51:52.990Z,95.68
2023-01-19T03:54:23.279Z,95.41
2023-01-19T03:56:56.520Z,95.53
2023-01-19T03:59:26.624Z,95.45
2023-01-19T04:01:56.601Z,94.97
2023-01-19T04:04:26.804Z,95.10
2023-01-19T04:06:57.005Z,95.36
2023-01-19T04:09:27.029Z,94.86
2023-01-19T04:11:58.448Z,95.66
2023-01-19T04:14:30.083Z,95.25
2023-01-19T04:17:00.390Z,95.57
2023-01-19T04:19:30.610Z,95.09
2023-01-19T04:22:00.947Z,95.29
2023-01-19T04:24:31.986Z,95.22
2023-01-19T04:27:02.029Z,94.65
2023-01-19T04:29:32.200Z,95.23
2023-01-19T04:32:02.441Z,95.22
2023-01-19T04:34:33.149Z,95.20
2023-01-19T04:37:02.905Z,94.91
2023-01-19T04:39:32.942Z,95.48
2023-01-19T04:42:02.781Z,95.03
2023-01-19T04:44:32.650Z,95.24
2023-01-19T04:47:03.224Z,95.22
2023-01-19T04:49:33.335Z,95.43
2023-01-19T04:52:03.202Z,95.05
2023-01-19T04:54:33.816Z,95.47
2023-01-19T04:57:04.141Z,95.23
2023-01-19T04:59:34.354Z,95.30
2023-01-19T05:02:04.045Z,94.77
2023-01-19T05:04:34.515Z,95.01
2023-01-19T05:07:04.649Z,95.14
2023-01-19T05:09:34.727Z,95.05
2023-01-19T05:12:05.072Z,94.64
2023-01-19T05:14:35.305Z,94.59
2023-01-19T05:17:05.658Z,94.87
2023-01-19T05:19:36.011Z,94.89
2023-01-19T05:22:07.706Z,94.77
2023-01-19T05:24:37.868Z,94.87
2023-01-19T05:27:07.519Z,94.53
2023-01-19T05:29:37.545Z,94.66
2023-01-19T05:32:07.899Z,94.59
2023-01-19T05:34:38.290Z,94.43
2023-01-19T05:37:08.613Z,94.94
2023-01-19T05:39:38.874Z,94.70
2023-01-19T05:42:09.049Z,94.72
2023-01-19T05:44:39.028Z,94.91
2023-01-19T05:47:08.954Z,94.97
2023-01-19T05:49:39.988Z,94.80
2023-01-19T05:52:10.287Z,94.93
2023-01-19T05:54:41.561Z,94.97
2023-01-19T05:57:13.008Z,94.95
2023-01-19T05:59:43.213Z,94.90
2023-01-19T06:02:12.887Z,94.58
2023-01-19T06:04:43.084Z,94.81
2023-01-19T06:07:13.453Z,94.88
2023-01-19T06:09:43.581Z,95.33
2023-01-19T06:12:13.320Z,94.50
2023-01-19T06:14:43.156Z,94.86
2023-01-19T06:17:14.585Z,94.89
2023-01-19T06:19:44.814Z,94.97
2023-01-19T06:22:15.111Z,95.30
2023-01-19T06:24:45.361Z,95.28
2023-01-19T06:27:15.543Z,95.11
2023-01-19T06:29:45.205Z,94.91
2023-01-19T06:32:15.345Z,95.25
2023-01-19T06:34:44.968Z,94.98
2023-01-19T06:37:17.457Z,95.42
2023-01-19T06:39:47.730Z,95.51
2023-01-19T06:42:18.047Z,95.53
2023-01-19T06:44:49.261Z,95.85
2023-01-19T06:47:19.485Z,95.80
2023-01-19T06:49:50.202Z,95.94
2023-01-19T06:52:21.658Z,96.22
2023-01-19T06:54:51.850Z,96.26
2023-01-19T06:57:21.639Z,95.84
2023-01-19T06:59:51.557Z,96.44
2023-01-19T07:02:27.486Z,96.50
2023-01-19T07:04:58.867Z,96.54
2023-01-19T07:07:29.471Z,96.66
2023-01-19T07:10:00.620Z,96.69
2023-01-19T07:12:32.694Z,96.81
2023-01-19T07:15:03.171Z,97.02
2023-01-19T07:17:33.458Z,96.99
2023-01-19T07:20:04.266Z,97.19
2023-01-19T07:22:34.549Z,97.16
2023-01-19T07:25:04.666Z,97.04
2023-01-19T07:27:34.962Z,97.14
2023-01-19T07:30:24.588Z,97.18
2023-01-19T07:32:58.789Z,97.43
2023-01-19T07:35:30.874Z,97.59
2023-01-19T07:38:01.233Z,97.64
2023-01-19T07:40:31.418Z,97.67
2023-01-19T07:43:02.141Z,97.63
2023-01-19T07:45:32.475Z,97.65
2023-01-19T07:48:02.662Z,97.75
2023-01-19T07:50:33.141Z,97.69
2023-01-19T07:53:12.970Z,97.68
2023-01-19T07:55:43.163Z,97.68
2023-01-19T07:58:13.085Z,97.22
2023-01-19T08:00:43.218Z,97.48
2023-01-19T08:03:13.677Z,97.59
2023-01-19T08:05:43.938Z,97.63
2023-01-19T08:08:14.734Z,97.60
2023-01-19T08:10:44.918Z,97.70
2023-01-19T08:13:15.419Z,97.64
2023-01-19T08:15:45.703Z,97.45
2023-01-19T08:18:16.886Z,97.70
2023-01-19T08:20:47.196Z,97.62
2023-01-19T08:23:19.178Z,97.71
2023-01-19T08:25:49.403Z,97.77
2023-01-19T08:28:19.450Z,97.26
2023-01-19T08:30:55.178Z,97.50
2023-01-19T08:33:44.308Z,97.21
2023-01-19T08:36:14.508Z,97.47
2023-01-19T08:38:46.970Z,97.36
2023-01-19T08:41:20.257Z,97.75
2023-01-19T08:43:50.917Z,97.60
2023-01-19T08:46:22.993Z,97.65
2023-01-19T08:48:53.118Z,97.82
2023-01-19T08:51:23.772Z,98.01
2023-01-19T08:53:53.948Z,97.84
2023-01-19T08:56:25.330Z,97.47
2023-01-19T08:59:08.110Z,97.32
2023-01-19T09:01:39.673Z,97.37
2023-01-19T09:04:10.072Z,97.31
2023-01-19T09:06:40.324Z,97.25
2023-01-19T09:09:10.194Z,96.86
2023-01-19T09:11:40.246Z,97.30
2023-01-19T09:14:09.920Z,96.84
2023-01-19T09:16:40.060Z,97.07
2023-01-19T09:19:10.434Z,96.65
2023-01-19T09:21:40.581Z,96.68
2023-01-19T09:24:10.475Z,96.17
2023-01-19T09:26:41.979Z,96.13
2023-01-19T09:29:12.359Z,96.26
2023-01-19T09:31:42.263Z,95.57
2023-01-19T09:34:13.883Z,95.85
2023-01-19T09:36:44.152Z,95.55
2023-01-19T09:39:14.117Z,95.64
2023-01-19T09:41:46.837Z,94.81
2023-01-19T09:44:27.572Z,94.66
2023-01-19T09:46:57.823Z,94.69
2023-01-19T09:49:42.777Z,94.11
2023-01-19T09:52:15.727Z,93.75
2023-01-19T09:54:55.267Z,93.49
2023-01-19T09:57:29.343Z,93.73
2023-01-19T10:00:00.662Z,93.85
2023-01-19T10:02:57.745Z,93.23
2023-01-19T10:05:59.399Z,93.40
2023-01-19T10:08:40.736Z,92.75
2023-01-19T10:11:51.278Z,93.08
2023-01-19T10:14:47.625Z,93.58
2023-01-19T10:17:44.385Z,93.80
2023-01-19T10:20:27.334Z,93.84
2023-01-19T10:23:00.690Z,94.07
2023-01-19T10:25:31.998Z,93.90
2023-01-19T10:28:02.892Z,93.57
2023-01-19T10:30:33.187Z,93.49
2023-01-19T10:33:03.796Z,93.41
2023-01-19T10:35:34.159Z,93.04
2023-01-19T10:38:04.848Z,92.58
2023-01-19T10:40:56.965Z,91.89
2023-01-19T10:43:47.419Z,91.56
2023-01-19T10:46:23.548Z,91.90
2023-01-19T10:48:55.427Z,92.12
2023-01-19T10:51:26.153Z,91.56
2023-01-19T10:54:04.769Z,91.31
2023-01-19T10:56:38.780Z,91.05
2023-01-19T10:59:28.976Z,91.69
2023-01-19T11:02:29.227Z,91.09
2023-01-19T11:05:20.299Z,91.61
2023-01-19T11:07:50.622Z,91.19
2023-01-19T11:10:25.706Z,90.75
2023-01-19T11:13:17.189Z,89.66
2023-01-19T11:15:55.528Z,89.08
2023-01-19T11:18:31.935Z,89.75
2023-01-19T11:21:08.358Z,90.54
2023-01-19T11:23:44.593Z,90.29
2023-01-19T11:26:25.736Z,90.34
2023-01-19T11:28:58.164Z,90.10
2023-01-19T11:31:31.175Z,89.35
2023-01-19T11:34:07.017Z,88.59
2023-01-19T11:36:38.282Z,88.47
2023-01-19T11:39:29.362Z,87.02
2023-01-19T11:42:05.980Z,87.43
2023-01-19T11:44:46.122Z,86.30
2023-01-19T11:47:29.194Z,86.14
2023-01-19T11:50:15.463Z,84.03
2023-01-19T11:53:11.469Z,83.33
2023-01-19T11:55:55.369Z,83.20
2023-01-19T11:58:27.308Z,82.94
2023-01-19T12:01:07.924Z,83.09
2023-01-19T12:03:49.419Z,83.94
2023-01-19T12:06:25.481Z,82.25
2023-01-19T12:09:00.209Z,81.59
2023-01-19T12:11:41.719Z,81.19
2023-01-19T12:14:21.574Z,80.25
2023-01-19T12:16:56.355Z,80.04
2023-01-19T12:19:55.131Z,80.93
2023-01-19T12:22:29.970Z,81.19
2023-01-19T12:25:14.479Z,81.01
2023-01-19T12:27:47.568Z,80.73
2023-01-19T12:30:31.230Z,79.96
2023-01-19T12:33:41.359Z,80.51
2023-01-19T12:36:36.773Z,81.56
2023-01-19T12:39:19.284Z,80.49
2023-01-19T12:41:50.029Z,80.99
2023-01-19T12:44:26.691Z,81.44
2023-01-19T12:47:09.252Z,81.76
2023-01-19T12:49:50.667Z,80.68
2023-01-19T12:52:40.516Z,80.36
2023-01-19T12:55:16.741Z,80.08
2023-01-19T12:58:08.670Z,79.60
2023-01-19T13:00:42.595Z,77.96
2023-01-19T13:03:18.577Z,78.99
2023-01-19T13:05:58.998Z,79.70
2023-01-19T13:08:32.298Z,80.00
2023-01-19T13:11:11.477Z,80.60
2023-01-19T13:14:07.607Z,79.06
2023-01-19T13:16:37.754Z,78.01
2023-01-19T13:19:07.707Z,77.67
2023-01-19T13:21:47.285Z,78.44
2023-01-19T13:24:24.657Z,76.63
2023-01-19T13:27:01.623Z,77.20
2023-01-19T13:29:36.919Z,76.43
2023-01-19T13:32:16.989Z,76.67
2023-01-19T13:34:53.873Z,75.93
2023-01-19T13:37:28.588Z,76.78
2023-01-19T13:39:59.460Z,76.15
2023-01-19T13:42:32.767Z,77.36
2023-01-19T13:45:08.752Z,75.22
2023-01-19T13:47:47.273Z,76.58
2023-01-19T13:50:26.682Z,75.65
2023-01-19T13:52:58.134Z,75.76
2023-01-19T13:55:30.876Z,75.13
2023-01-19T13:58:01.037Z,74.51
2023-01-19T14:00:32.488Z,75.15
2023-01-19T14:03:15.185Z,73.99
2023-01-19T14:05:46.233Z,73.91
2023-01-19T14:08:19.323Z,74.00
2023-01-19T14:10:57.418Z,73.10
2023-01-19T14:13:32.973Z,74.17
2023-01-19T14:16:25.043Z,74.79
2023-01-19T14:19:03.862Z,74.77
2023-01-19T14:21:43.508Z,73.76
2023-01-19T14:24:22.744Z,74.10
2023-01-19T14:26:55.891Z,74.13
2023-01-19T14:29:33.333Z,74.60
2023-01-19T14:32:15.022Z,74.79
2023-01-19T14:34:55.093Z,75.84
2023-01-19T14:37:26.912Z,75.81
2023-01-19T14:45:17.404Z,75.21
2023-01-19T14:45:53.853Z,74.74
2023-01-19T14:48:24.136Z,73.11
2023-01-19T14:51:04.045Z,72.73
2023-01-19T14:53:39.503Z,74.51
2023-01-19T14:56:09.857Z,73.66
2023-01-19T14:58:40.214Z,73.92
2023-01-19T15:01:11.156Z,74.25
2023-01-19T15:03:45.667Z,73.94
2023-01-19T15:06:18.751Z,74.12
2023-01-19T15:08:51.217Z,72.56
2023-01-19T15:11:33.444Z,73.79
2023-01-19T15:14:04.690Z,75.17
2023-01-19T15:16:36.341Z,72.14
2023-01-19T15:19:06.578Z,74.37
2023-01-19T15:21:37.058Z,73.18
2023-01-19T15:24:07.421Z,71.99
2023-01-19T15:26:39.168Z,70.17
2023-01-19T15:29:27.031Z,71.40
2023-01-19T15:31:57.584Z,72.71
2023-01-19T15:34:27.874Z,73.95
2023-01-19T15:36:58.143Z,73.82
2023-01-19T15:39:28.406Z,72.56
2023-01-19T15:41:58.681Z,72.82
2023-01-19T15:44:28.962Z,73.82
2023-01-19T15:46:59.896Z,72.70
2023-01-19T15:49:31.997Z,71.05
2023-01-19T15:52:02.377Z,68.85
2023-01-19T15:54:32.658Z,68.01
2023-01-19T15:57:03.009Z,67.54
2023-01-19T15:59:34.474Z,65.36
2023-01-19T16:02:05.152Z,65.58
2023-01-19T16:04:35.372Z,65.80
2023-01-19T16:07:05.693Z,65.20
2023-01-19T16:09:35.927Z,63.65
2023-01-19T16:12:06.268Z,66.26
2023-01-19T16:14:36.489Z,66.11
2023-01-19T16:17:07.066Z,65.15
2023-01-19T16:19:37.248Z,66.37
2023-01-19T16:22:07.353Z,66.06
2023-01-19T16:24:37.588Z,65.69
2023-01-19T16:27:10.179Z,66.11
2023-01-19T16:29:40.347Z,66.01
2023-01-19T16:32:09.785Z,66.72
2023-01-19T16:34:39.657Z,67.30
2023-01-19T16:37:09.708Z,66.70
2023-01-19T16:39:39.915Z,65.82
2023-01-19T16:42:10.145Z,63.54
2023-01-19T16:44:40.415Z,64.36
2023-01-19T16:47:10.565Z,65.18
2023-01-19T16:49:40.939Z,64.56
2023-01-19T16:52:11.410Z,65.77
2023-01-19T16:54:44.373Z,67.22
2023-01-19T16:57:14.805Z,66.91
2023-01-19T16:59:46.371Z,67.76
2023-01-19T17:02:16.615Z,69.26
2023-01-19T17:04:46.853Z,68.63
2023-01-19T17:07:18.974Z,68.42
2023-01-19T17:09:49.495Z,67.51
2023-01-19T17:12:20.010Z,68.21
2023-01-19T17:14:50.263Z,67.77
2023-01-19T17:17:20.498Z,67.85
2023-01-19T17:19:50.761Z,65.76
2023-01-19T17:22:21.089Z,67.23
2023-01-19T17:24:51.326Z,68.74
2023-01-19T17:27:21.702Z,68.68
2023-01-19T17:30:12.365Z,68.56
2023-01-19T17:32:44.037Z,66.85
2023-01-19T17:35:15.130Z,67.18
2023-01-19T17:37:45.357Z,67.19
2023-01-19T17:40:15.535Z,66.73
2023-01-19T17:42:45.731Z,68.12
2023-01-19T17:45:16.061Z,66.40
2023-01-19T17:47:46.317Z,66.05
2023-01-19T17:50:16.798Z,66.18
2023-01-19T17:52:47.082Z,66.22
2023-01-19T17:55:17.726Z,65.65
2023-01-19T17:57:48.036Z,67.19
2023-01-19T18:00:19.974Z,68.32
2023-01-19T18:02:53.760Z,69.17
2023-01-19T18:05:25.293Z,69.17
2023-01-19T18:07:55.542Z,67.60
2023-01-19T18:10:25.967Z,68.54
2023-01-19T18:12:56.316Z,68.22
2023-01-19T18:15:26.615Z,67.63
2023-01-19T18:17:56.907Z,66.61
2023-01-19T18:20:26.930Z,66.68
2023-01-19T18:22:57.138Z,66.78
2023-01-19T18:25:27.458Z,67.25
2023-01-19T18:27:57.778Z,65.97
2023-01-19T18:30:28.107Z,66.26
2023-01-19T18:32:59.731Z,65.86
2023-01-19T18:35:30.183Z,67.66
2023-01-19T18:38:00.455Z,68.18
2023-01-19T18:40:30.731Z,67.80
2023-01-19T18:43:01.018Z,67.07
2023-01-19T18:45:31.347Z,67.77
2023-01-19T18:48:03.234Z,67.85
2023-01-19T18:50:33.823Z,67.81
2023-01-19T18:53:04.133Z,68.32
2023-01-19T18:55:34.328Z,69.40
2023-01-19T18:58:06.429Z,68.17
2023-01-19T19:00:36.574Z,68.17
2023-01-19T19:03:11.502Z,69.55
2023-01-19T19:05:41.877Z,69.54
2023-01-19T19:08:12.198Z,69.43
2023-01-19T19:10:43.299Z,69.55
2023-01-19T19:13:18.450Z,69.14
2023-01-19T19:15:49.360Z,70.05
2023-01-19T19:18:19.785Z,69.42
2023-01-19T19:20:50.042Z,69.21
2023-01-19T19:23:20.562Z,69.15
2023-01-19T19:25:50.547Z,69.28
2023-01-19T19:28:20.937Z,69.31
2023-01-19T19:31:13.675Z,69.88
2023-01-19T19:33:44.698Z,69.42
2023-01-19T19:36:14.983Z,69.54
2023-01-19T19:38:47.706Z,70.05
2023-01-19T19:41:23.064Z,71.54
2023-01-19T19:43:53.240Z,71.36
2023-01-19T19:46:25.535Z,70.16
2023-01-19T19:48:56.474Z,70.67
2023-01-19T19:51:28.702Z,71.65
2023-01-19T19:54:01.044Z,70.85
2023-01-19T19:56:33.483Z,71.05
2023-01-19T19:59:03.781Z,70.66
2023-01-19T20:01:34.707Z,71.88
2023-01-19T20:04:13.559Z,72.99
2023-01-19T20:06:45.788Z,72.52
2023-01-19T20:09:17.746Z,72.23
2023-01-19T20:11:50.240Z,72.25
2023-01-19T20:14:20.467Z,72.73
2023-01-19T20:16:51.004Z,73.18
2023-01-19T20:19:21.198Z,73.32
2023-01-19T20:21:51.384Z,73.36
2023-01-19T20:24:22.700Z,73.59
2023-01-19T20:26:55.935Z,74.00
2023-01-19T20:29:26.162Z,73.91
2023-01-19T20:31:57.867Z,74.36
2023-01-19T20:34:33.388Z,73.30
2023-01-19T20:37:05.928Z,73.57
2023-01-19T20:39:38.034Z,73.25
2023-01-19T20:42:12.353Z,73.86
2023-01-19T20:44:42.725Z,73.32
2023-01-19T20:47:13.066Z,72.94
2023-01-19T20:49:43.862Z,73.20
2023-01-19T20:52:14.126Z,73.89
2023-01-19T20:54:44.266Z,73.29
2023-01-19T20:57:14.473Z,73.52
2023-01-19T20:59:44.721Z,73.59
2023-01-19T21:02:16.157Z,74.11
2023-01-19T21:04:46.474Z,74.21
2023-01-19T21:07:16.823Z,74.09
2023-01-19T21:09:47.019Z,75.07
2023-01-19T21:12:17.215Z,74.97
2023-01-19T21:14:47.530Z,75.03
2023-01-19T21:17:17.758Z,75.80
2023-01-19T21:19:47.937Z,76.28
2023-01-19T21:22:18.125Z,75.94
2023-01-19T21:24:49.096Z,76.31
2023-01-19T21:27:19.495Z,76.40
2023-01-19T21:29:50.154Z,76.45
2023-01-19T21:32:20.329Z,76.89
2023-01-19T21:34:50.749Z,76.94
2023-01-19T21:37:20.910Z,77.13
2023-01-19T21:39:51.038Z,77.53
2023-01-19T21:42:21.213Z,77.99
2023-01-19T21:44:52.037Z,78.12
2023-01-19T21:47:22.165Z,78.79
2023-01-19T21:49:51.675Z,78.01
2023-01-19T21:52:21.545Z,77.92
2023-01-19T21:54:50.901Z,77.76
2023-01-19T21:57:20.990Z,78.24
2023-01-19T21:59:51.475Z,78.75
2023-01-19T22:02:37.029Z,78.94
2023-01-19T22:05:07.959Z,79.14
2023-01-19T22:07:38.417Z,79.53
2023-01-19T22:10:10.473Z,79.27
2023-01-19T22:12:44.485Z,79.63
2023-01-19T22:15:15.057Z,79.74
2023-01-19T22:17:45.342Z,79.49
2023-01-19T22:20:15.759Z,79.95
2023-01-19T22:22:46.126Z,80.37
2023-01-19T22:25:17.671Z,80.69
2023-01-19T22:27:47.911Z,81.09
2023-01-19T22:30:18.525Z,81.29
2023-01-19T22:32:48.761Z,81.86
2023-01-19T22:35:19.190Z,81.75
2023-01-19T22:37:49.692Z,82.29
2023-01-19T22:40:20.039Z,82.44
2023-01-19T22:42:50.799Z,82.85
2023-01-19T22:45:21.222Z,83.30
2023-01-19T22:47:51.424Z,83.47
2023-01-19T22:50:20.862Z,83.17
2023-01-19T22:52:50.910Z,83.81
2023-01-19T22:55:21.105Z,83.93
2023-01-19T22:57:51.295Z,84.03
2023-01-19T23:00:22.237Z,84.24
2023-01-19T23:02:52.360Z,84.26
2023-01-19T23:05:22.490Z,84.39
2023-01-19T23:07:52.810Z,84.75
2023-01-19T23:10:23.033Z,85.04
2023-01-19T23:12:54.443Z,84.95
2023-01-19T23:15:24.693Z,84.84
2023-01-19T23:17:54.927Z,85.27
2023-01-19T23:20:25.071Z,85.07
2023-01-19T23:22:55.266Z,85.16
2023-01-19T23:25:25.577Z,85.06
2023-01-19T23:27:55.798Z,85.13
2023-01-19T23:30:25.488Z,84.60
2023-01-19T23:32:55.308Z,85.21
2023-01-19T23:35:25.565Z,85.23
2023-01-19T23:37:56.403Z,85.48
2023-01-19T23:40:26.672Z,85.59
2023-01-19T23:42:56.433Z,84.94
2023-01-19T23:45:26.408Z,85.63
2023-01-19T23:47:56.643Z,85.79
2023-01-19T23:50:27.080Z,85.88
2023-01-19T23:52:57.331Z,86.14
2023-01-19T23:55:29.422Z,86.39
2023-01-19T23:57:59.894Z,86.37
